KLPC

Lompoc Airport

Lompoc, California, USA
METAR KLPC 182256Z AUTO 26012KT 9SM CLR 21/15 A3001 RMK AO2 SLP167 T02060150
Observed Flight Rules
Aug-18 @ 22:56 UTC (51 minutes ago) Visual Flight Rules
Wind Visibility Clouds
260° at 12 knots 9 miles
  • Clear skies
Temperatures Readings
Current 21°C / 70°F
Dewpoint 15°C / 59°F
Humidity 69%
Altimeter 30.01" Hg
Pressure 1016.7 hPa
Elevation 27
METAR KLPC 182256Z AUTO 26012KT 9SM CLR 21/15 A3001 RMK AO2 SLP167 T02060150
Observed Flight Rules
Aug-18 @ 22:56 UTC
(51 minutes ago)
VFR
Wind Visibility
260° at 12 knots 9 miles
Clouds
  • Clear skies
Temperature Dewpoint
21°C / 70°F 15°C / 59°F
Humidity Altimeter Pressure
69% 30.01" Hg 1016.7 hPa